createdAt,value
2022-10-07T00:01:12.033Z,100.00
2022-10-07T00:03:40.252Z,100.00
2022-10-07T00:06:12.608Z,100.00
2022-10-07T00:08:43.263Z,100.00
2022-10-07T00:11:17.778Z,100.00
2022-10-07T00:13:48.000Z,100.00
2022-10-07T00:16:21.880Z,100.00
2022-10-07T00:18:50.994Z,100.00
2022-10-07T00:21:20.541Z,100.00
2022-10-07T00:23:49.468Z,100.00
2022-10-07T00:26:23.781Z,100.00
2022-10-07T00:28:52.339Z,100.00
2022-10-07T00:31:25.843Z,100.00
2022-10-07T00:33:56.127Z,100.00
2022-10-07T00:36:27.151Z,100.00
2022-10-07T00:39:00.853Z,100.00
2022-10-07T00:41:38.152Z,100.00
2022-10-07T00:44:43.332Z,100.00
2022-10-07T00:47:12.922Z,100.00
2022-10-07T00:50:05.885Z,100.00
2022-10-07T00:52:37.643Z,100.00
2022-10-07T00:55:08.344Z,100.00
2022-10-07T00:57:37.984Z,100.00
2022-10-07T01:00:07.494Z,100.00
2022-10-07T01:02:38.173Z,100.00
2022-10-07T01:05:08.608Z,100.00
2022-10-07T01:07:37.603Z,100.00
2022-10-07T01:10:07.431Z,100.00
2022-10-07T01:12:40.981Z,100.00
2022-10-07T01:15:40.619Z,100.00
2022-10-07T01:18:26.753Z,100.00
2022-10-07T01:20:59.985Z,100.00
2022-10-07T01:23:54.062Z,100.00
2022-10-07T01:26:31.660Z,100.00
2022-10-07T01:29:04.632Z,100.00
2022-10-07T01:31:58.442Z,100.00
2022-10-07T01:34:26.882Z,100.00
2022-10-07T01:36:57.545Z,100.00
2022-10-07T01:39:31.293Z,100.00
2022-10-07T01:41:59.718Z,100.00
2022-10-07T01:44:32.068Z,100.00
2022-10-07T01:47:00.382Z,100.00
2022-10-07T01:49:29.535Z,100.00
2022-10-07T01:52:24.939Z,100.00
2022-10-07T01:55:17.919Z,100.00
2022-10-07T01:58:22.349Z,100.00
2022-10-07T02:01:26.017Z,100.00
2022-10-07T02:04:14.180Z,100.00
2022-10-07T02:07:09.644Z,100.00
2022-10-07T02:09:46.889Z,100.00
2022-10-07T02:12:16.317Z,100.00
2022-10-07T02:15:04.497Z,100.00
2022-10-07T02:17:35.281Z,100.00
2022-10-07T02:20:04.774Z,100.00
2022-10-07T02:22:33.599Z,100.00
2022-10-07T02:25:02.240Z,100.00
2022-10-07T02:27:35.429Z,100.00
2022-10-07T02:30:08.247Z,100.00
2022-10-07T02:32:36.918Z,100.00
2022-10-07T02:35:13.293Z,100.00
2022-10-07T02:37:43.111Z,100.00
2022-10-07T02:40:12.737Z,100.00
2022-10-07T02:42:58.659Z,100.00
2022-10-07T02:45:39.298Z,100.00
2022-10-07T02:48:15.560Z,100.00
2022-10-07T02:50:47.400Z,100.00
2022-10-07T02:53:16.957Z,100.00
2022-10-07T02:55:48.549Z,100.00
2022-10-07T02:58:16.905Z,100.00
2022-10-07T03:00:48.276Z,100.00
2022-10-07T03:03:17.077Z,100.00
2022-10-07T03:05:53.245Z,100.00
2022-10-07T03:08:22.584Z,100.00
2022-10-07T03:10:52.264Z,100.00
2022-10-07T03:13:20.334Z,100.00
2022-10-07T03:15:53.202Z,100.00
2022-10-07T03:18:29.512Z,100.00
2022-10-07T03:21:12.924Z,100.00
2022-10-07T03:23:42.017Z,100.00
2022-10-07T03:26:11.843Z,100.00
2022-10-07T03:28:40.576Z,100.00
2022-10-07T03:31:10.511Z,100.00
2022-10-07T03:33:43.950Z,100.00
2022-10-07T03:36:13.144Z,100.00
2022-10-07T03:38:43.566Z,100.00
2022-10-07T03:41:13.181Z,100.00
2022-10-07T03:43:41.643Z,100.00
2022-10-07T03:46:11.468Z,100.00
2022-10-07T03:48:40.331Z,100.00
2022-10-07T03:51:09.608Z,100.00
2022-10-07T03:53:40.423Z,100.00
2022-10-07T03:56:09.106Z,100.00
2022-10-07T03:58:39.584Z,100.00
2022-10-07T04:01:12.269Z,100.00
2022-10-07T04:03:46.772Z,100.00
2022-10-07T04:06:15.383Z,100.00
2022-10-07T04:08:44.986Z,100.00
2022-10-07T04:11:14.320Z,100.00
2022-10-07T04:13:45.265Z,100.00
2022-10-07T04:16:13.858Z,100.00
2022-10-07T04:18:43.078Z,100.00
2022-10-07T04:21:11.521Z,100.00
2022-10-07T04:23:41.504Z,100.00
2022-10-07T04:26:11.655Z,100.00
2022-10-07T04:28:43.484Z,100.00
2022-10-07T04:31:14.934Z,100.00
2022-10-07T04:33:48.661Z,100.00
2022-10-07T04:36:22.322Z,100.00
2022-10-07T04:38:57.014Z,100.00
2022-10-07T04:41:29.499Z,100.00
2022-10-07T04:43:58.213Z,100.00
2022-10-07T04:46:30.036Z,100.00
2022-10-07T04:49:05.309Z,100.00
2022-10-07T04:51:33.485Z,100.00
2022-10-07T04:54:02.765Z,100.00
2022-10-07T04:56:37.494Z,100.00
2022-10-07T04:59:08.152Z,100.00
2022-10-07T05:01:37.791Z,100.00
2022-10-07T05:04:06.147Z,100.00
2022-10-07T05:06:35.378Z,100.00
2022-10-07T05:09:03.998Z,100.00
2022-10-07T05:11:35.623Z,100.00
2022-10-07T05:14:09.455Z,100.00
2022-10-07T05:16:38.092Z,100.00
2022-10-07T05:19:07.181Z,100.00
2022-10-07T05:21:34.924Z,100.00
2022-10-07T05:24:04.804Z,100.00
2022-10-07T05:26:37.331Z,100.00
2022-10-07T05:29:07.740Z,100.00
2022-10-07T05:31:44.227Z,100.00
2022-10-07T05:34:15.315Z,100.00
2022-10-07T05:36:44.556Z,100.00
2022-10-07T05:39:13.869Z,100.00
2022-10-07T05:41:55.961Z,100.00
2022-10-07T05:44:30.013Z,100.00
2022-10-07T05:46:59.559Z,100.00
2022-10-07T05:49:28.166Z,100.00
2022-10-07T05:51:56.986Z,100.00
2022-10-07T05:54:25.684Z,100.00
2022-10-07T05:56:55.248Z,100.00
2022-10-07T05:59:24.497Z,100.00
2022-10-07T06:02:00.385Z,100.00
2022-10-07T06:04:29.681Z,100.00
2022-10-07T06:06:58.078Z,100.00
2022-10-07T06:09:44.959Z,100.00
2022-10-07T06:12:36.973Z,100.00
2022-10-07T06:15:10.708Z,100.00
2022-10-07T06:17:44.438Z,100.00
2022-10-07T06:20:15.496Z,100.00
2022-10-07T06:22:44.568Z,100.00
2022-10-07T06:25:14.781Z,100.00
2022-10-07T06:27:45.092Z,100.00
2022-10-07T06:30:16.231Z,100.00
2022-10-07T06:32:45.272Z,100.00
2022-10-07T06:35:14.269Z,100.00
2022-10-07T06:37:43.111Z,100.00
2022-10-07T06:40:12.486Z,100.00
2022-10-07T06:42:41.142Z,100.00
2022-10-07T06:45:44.364Z,100.00
2022-10-07T06:48:14.734Z,100.00
2022-10-07T06:50:53.268Z,100.00
2022-10-07T06:53:22.669Z,100.00
2022-10-07T06:55:52.306Z,100.00
2022-10-07T06:58:22.611Z,100.00
2022-10-07T07:00:52.670Z,100.00
2022-10-07T07:03:24.357Z,100.00
2022-10-07T07:05:54.491Z,100.00
2022-10-07T07:08:32.551Z,97.35
2022-10-07T07:11:06.264Z,96.58
2022-10-07T07:13:36.456Z,98.65
2022-10-07T07:16:05.131Z,92.47
2022-10-07T07:18:35.154Z,91.27
2022-10-07T07:21:03.644Z,94.20
2022-10-07T07:23:34.100Z,91.64
2022-10-07T07:26:01.819Z,90.85
2022-10-07T07:28:31.610Z,89.18
2022-10-07T07:31:00.599Z,91.93
2022-10-07T07:33:29.528Z,92.07
2022-10-07T07:35:57.819Z,92.47
2022-10-07T07:38:26.120Z,88.15
2022-10-07T07:40:55.666Z,87.29
2022-10-07T07:43:24.013Z,86.25
2022-10-07T07:45:51.890Z,86.11
2022-10-07T07:48:19.974Z,82.83
2022-10-07T07:50:48.001Z,84.55
2022-10-07T07:53:16.550Z,82.73
2022-10-07T07:55:57.133Z,87.79
2022-10-07T07:58:26.737Z,87.43
2022-10-07T08:01:16.902Z,79.80
2022-10-07T08:03:47.629Z,82.74
2022-10-07T08:06:18.315Z,82.14
2022-10-07T08:08:47.642Z,82.90
2022-10-07T08:11:20.359Z,84.33
2022-10-07T08:13:51.754Z,84.02
2022-10-07T08:16:23.619Z,79.86
2022-10-07T08:18:55.554Z,80.21
2022-10-07T08:21:27.394Z,77.51
2022-10-07T08:24:00.792Z,80.82
2022-10-07T08:26:33.313Z,75.08
2022-10-07T08:29:03.972Z,75.82
2022-10-07T08:31:33.606Z,78.24
2022-10-07T08:34:02.320Z,76.20
2022-10-07T08:36:32.994Z,76.48
2022-10-07T08:39:02.178Z,77.01
2022-10-07T08:41:56.859Z,70.45
2022-10-07T08:44:30.130Z,72.95
2022-10-07T08:46:58.255Z,69.69
2022-10-07T08:49:36.420Z,68.84
2022-10-07T08:52:30.394Z,72.46
2022-10-07T08:55:00.544Z,67.84
2022-10-07T08:57:42.875Z,68.59
2022-10-07T09:00:12.855Z,67.17
2022-10-07T09:03:05.872Z,68.43
2022-10-07T09:05:43.089Z,68.56
2022-10-07T09:08:15.995Z,67.42
2022-10-07T09:10:49.783Z,67.61
2022-10-07T09:13:23.537Z,71.26
2022-10-07T09:16:18.571Z,71.23
2022-10-07T09:18:51.110Z,67.49
2022-10-07T09:21:23.785Z,69.47
2022-10-07T09:24:13.376Z,67.24
2022-10-07T09:26:41.849Z,67.23
2022-10-07T09:29:10.842Z,68.17
2022-10-07T09:31:40.283Z,68.41
2022-10-07T09:34:20.190Z,69.60
2022-10-07T09:37:33.185Z,66.77
2022-10-07T09:40:21.662Z,66.98
2022-10-07T09:42:50.296Z,69.52
2022-10-07T09:45:33.111Z,67.89
2022-10-07T09:48:15.749Z,69.40
2022-10-07T09:50:44.817Z,67.36
2022-10-07T09:53:19.275Z,67.14
2022-10-07T09:55:48.062Z,66.04
2022-10-07T09:58:21.509Z,64.13
2022-10-07T10:00:52.308Z,65.58
2022-10-07T10:03:21.038Z,65.68
2022-10-07T10:06:00.408Z,67.28
2022-10-07T10:08:36.663Z,66.16
2022-10-07T10:11:28.180Z,68.25
2022-10-07T10:13:57.085Z,64.46
2022-10-07T10:16:25.459Z,65.51
2022-10-07T10:19:04.534Z,61.91
2022-10-07T10:21:36.071Z,61.50
2022-10-07T10:24:12.584Z,63.09
2022-10-07T10:27:04.002Z,62.80
2022-10-07T10:30:06.037Z,61.21
2022-10-07T10:32:57.428Z,65.08
2022-10-07T10:35:28.866Z,62.62
2022-10-07T10:38:03.305Z,62.46
2022-10-07T10:40:36.594Z,65.45
2022-10-07T10:43:20.654Z,62.86
2022-10-07T10:45:57.597Z,62.92
2022-10-07T10:48:29.334Z,60.16
2022-10-07T10:51:13.698Z,62.20
2022-10-07T10:53:52.014Z,64.56
2022-10-07T10:56:28.617Z,61.33
2022-10-07T10:59:15.098Z,60.92
2022-10-07T11:01:46.071Z,64.14
2022-10-07T11:04:25.698Z,62.36
2022-10-07T11:07:21.629Z,61.94
2022-10-07T11:09:55.650Z,61.49
2022-10-07T11:12:30.265Z,61.38
2022-10-07T11:15:06.951Z,61.29
2022-10-07T11:17:37.868Z,60.89
2022-10-07T11:20:18.719Z,60.21
2022-10-07T11:22:57.209Z,62.01
2022-10-07T11:25:32.258Z,60.50
2022-10-07T11:28:09.364Z,62.01
2022-10-07T11:30:49.802Z,61.31
2022-10-07T11:33:28.886Z,58.58
2022-10-07T11:36:14.498Z,60.36
2022-10-07T11:38:42.884Z,60.18
2022-10-07T11:41:34.134Z,62.29
2022-10-07T11:44:05.948Z,60.92
2022-10-07T11:46:41.004Z,61.30
2022-10-07T11:49:18.374Z,59.55
2022-10-07T11:51:55.257Z,59.62
2022-10-07T11:54:27.753Z,60.39
2022-10-07T11:57:00.641Z,62.53
2022-10-07T11:59:35.123Z,59.32
2022-10-07T12:02:03.859Z,60.15
2022-10-07T12:04:34.365Z,60.71
2022-10-07T12:07:33.454Z,60.96
2022-10-07T12:10:03.976Z,60.54
2022-10-07T12:12:50.365Z,61.26
2022-10-07T12:15:42.798Z,61.13
2022-10-07T12:18:18.087Z,59.84
2022-10-07T12:20:53.526Z,59.38
2022-10-07T12:23:22.345Z,61.61
2022-10-07T12:26:30.559Z,59.33
2022-10-07T12:28:58.887Z,60.26
2022-10-07T12:31:32.630Z,60.42
2022-10-07T12:34:07.844Z,61.96
2022-10-07T12:36:38.811Z,62.57
2022-10-07T12:39:12.463Z,59.26
2022-10-07T12:41:43.281Z,61.19
2022-10-07T12:44:37.061Z,61.77
2022-10-07T12:47:28.788Z,61.81
2022-10-07T12:50:03.664Z,62.79
2022-10-07T12:52:54.961Z,63.06
2022-10-07T12:55:37.346Z,61.61
2022-10-07T12:58:42.581Z,63.17
2022-10-07T13:01:48.419Z,62.00
2022-10-07T13:04:41.430Z,62.76
2022-10-07T13:07:30.968Z,62.36
2022-10-07T13:10:26.566Z,60.79
2022-10-07T13:12:56.586Z,61.77
2022-10-07T13:15:47.727Z,61.69
2022-10-07T13:18:23.241Z,61.66
2022-10-07T13:21:03.321Z,63.05
2022-10-07T13:23:32.458Z,63.46
2022-10-07T13:26:03.109Z,63.94
2022-10-07T13:28:45.798Z,64.71
2022-10-07T13:31:21.145Z,66.36
2022-10-07T13:33:50.204Z,66.04
2022-10-07T13:36:35.220Z,66.33
2022-10-07T13:39:23.249Z,66.50
2022-10-07T13:41:56.482Z,66.57
2022-10-07T13:44:27.126Z,67.33
2022-10-07T13:46:58.565Z,66.12
2022-10-07T13:49:30.613Z,68.89
2022-10-07T13:52:01.589Z,67.76
2022-10-07T13:54:31.782Z,69.23
2022-10-07T13:57:02.543Z,68.95
2022-10-07T13:59:36.956Z,67.13
2022-10-07T14:02:05.519Z,65.87
2022-10-07T14:04:34.334Z,66.07
2022-10-07T14:07:21.992Z,66.74
2022-10-07T14:10:08.977Z,66.62
2022-10-07T14:12:46.593Z,67.08
2022-10-07T14:15:19.955Z,66.85
2022-10-07T14:17:51.906Z,67.36
2022-10-07T14:20:25.581Z,68.95
2022-10-07T14:22:55.892Z,69.93
2022-10-07T14:25:29.342Z,70.22
2022-10-07T14:27:58.096Z,70.72
2022-10-07T14:30:59.978Z,71.01
2022-10-07T14:34:25.739Z,71.83
2022-10-07T14:37:15.961Z,72.70
2022-10-07T14:39:49.819Z,72.43
2022-10-07T14:42:22.319Z,72.70
2022-10-07T14:44:50.834Z,74.15
2022-10-07T14:47:21.408Z,75.17
2022-10-07T14:49:49.571Z,75.81
2022-10-07T14:52:21.896Z,76.52
2022-10-07T14:54:51.589Z,77.31
2022-10-07T14:57:19.666Z,78.48
2022-10-07T14:59:50.586Z,78.70
2022-10-07T15:02:19.437Z,78.87
2022-10-07T15:04:48.029Z,79.84
2022-10-07T15:07:16.854Z,80.40
2022-10-07T15:09:47.230Z,80.85
2022-10-07T15:12:16.620Z,81.47
2022-10-07T15:14:44.502Z,81.85
2022-10-07T15:17:13.218Z,82.44
2022-10-07T15:19:42.011Z,83.28
2022-10-07T15:22:10.368Z,83.58
2022-10-07T15:24:39.023Z,84.49
2022-10-07T15:27:10.020Z,85.28
2022-10-07T15:29:38.349Z,85.93
2022-10-07T15:32:07.888Z,86.39
2022-10-07T15:34:36.689Z,86.82
2022-10-07T15:37:04.620Z,87.88
2022-10-07T15:39:37.447Z,88.24
2022-10-07T15:42:08.650Z,88.99
2022-10-07T15:44:37.074Z,89.52
2022-10-07T15:47:05.030Z,90.49
2022-10-07T15:49:33.337Z,90.90
2022-10-07T15:52:02.010Z,91.78
2022-10-07T15:54:30.860Z,92.30
2022-10-07T15:56:59.410Z,93.27
2022-10-07T15:59:27.561Z,94.54
2022-10-07T16:01:55.819Z,95.18
2022-10-07T16:04:24.320Z,96.41
2022-10-07T16:06:52.945Z,97.52
2022-10-07T16:09:22.678Z,98.81
2022-10-07T16:11:51.757Z,100.00
2022-10-07T16:14:19.866Z,100.00
2022-10-07T16:16:48.502Z,100.00
2022-10-07T16:19:16.406Z,100.00
2022-10-07T16:21:44.368Z,100.00
2022-10-07T16:24:18.358Z,100.00
2022-10-07T16:26:47.921Z,100.00
2022-10-07T16:29:36.540Z,100.00
2022-10-07T16:32:05.161Z,100.00
2022-10-07T16:34:33.541Z,100.00
2022-10-07T16:37:01.228Z,100.00
2022-10-07T16:39:29.266Z,100.00
2022-10-07T16:41:58.729Z,100.00
2022-10-07T16:44:28.229Z,100.00
2022-10-07T16:46:59.900Z,100.00
2022-10-07T16:49:29.452Z,100.00
2022-10-07T16:51:58.146Z,100.00
2022-10-07T16:54:30.026Z,100.00
2022-10-07T16:56:59.206Z,100.00
2022-10-07T16:59:27.962Z,100.00
2022-10-07T17:01:57.498Z,100.00
2022-10-07T17:04:26.234Z,100.00
2022-10-07T17:06:54.953Z,100.00
2022-10-07T17:09:25.073Z,100.00
2022-10-07T17:11:53.114Z,100.00
2022-10-07T17:14:22.409Z,100.00
2022-10-07T17:16:53.511Z,100.00
2022-10-07T17:19:24.944Z,100.00
2022-10-07T17:21:55.013Z,100.00
2022-10-07T17:24:24.666Z,100.00
2022-10-07T17:26:53.683Z,100.00
2022-10-07T17:29:26.641Z,100.00
2022-10-07T17:31:55.299Z,100.00
2022-10-07T17:34:24.861Z,100.00
2022-10-07T17:36:55.011Z,100.00
2022-10-07T17:39:25.282Z,100.00
2022-10-07T17:41:56.264Z,100.00
2022-10-07T17:44:27.436Z,100.00
2022-10-07T17:46:59.777Z,100.00
2022-10-07T17:49:28.874Z,100.00
2022-10-07T17:51:59.839Z,100.00
2022-10-07T17:54:29.794Z,100.00
2022-10-07T17:56:57.879Z,100.00
2022-10-07T17:59:27.204Z,100.00
2022-10-07T18:01:56.556Z,100.00
2022-10-07T18:04:25.458Z,100.00
2022-10-07T18:06:53.770Z,100.00
2022-10-07T18:09:23.471Z,100.00
2022-10-07T18:12:09.895Z,100.00
2022-10-07T18:14:56.981Z,100.00
2022-10-07T18:17:25.618Z,100.00
2022-10-07T18:19:55.317Z,100.00
2022-10-07T18:22:24.978Z,100.00
2022-10-07T18:24:57.631Z,100.00
2022-10-07T18:27:28.419Z,100.00
2022-10-07T18:29:57.294Z,100.00
2022-10-07T18:32:26.420Z,100.00
2022-10-07T18:34:54.447Z,100.00
2022-10-07T18:37:24.598Z,100.00
2022-10-07T18:39:54.330Z,100.00
2022-10-07T18:42:22.522Z,100.00
2022-10-07T18:44:50.914Z,100.00
2022-10-07T18:47:19.184Z,100.00
2022-10-07T18:49:47.817Z,100.00
2022-10-07T18:52:16.065Z,100.00
2022-10-07T18:54:44.003Z,100.00
2022-10-07T18:57:12.914Z,100.00
2022-10-07T18:59:40.716Z,100.00
2022-10-07T19:02:11.832Z,100.00
2022-10-07T19:04:40.563Z,100.00
2022-10-07T19:07:09.015Z,100.00
2022-10-07T19:09:38.080Z,100.00
2022-10-07T19:12:26.914Z,100.00
2022-10-07T19:14:54.710Z,100.00
2022-10-07T19:17:24.383Z,100.00
2022-10-07T19:19:53.115Z,100.00
2022-10-07T19:22:21.706Z,100.00
2022-10-07T19:25:09.641Z,100.00
2022-10-07T19:27:39.650Z,100.00
2022-10-07T19:30:08.407Z,100.00
2022-10-07T19:32:36.743Z,100.00
2022-10-07T19:35:06.532Z,100.00
2022-10-07T19:37:34.674Z,100.00
2022-10-07T19:40:03.673Z,100.00
2022-10-07T19:42:32.398Z,100.00
2022-10-07T19:45:01.213Z,100.00
2022-10-07T19:47:29.613Z,100.00
2022-10-07T19:49:57.376Z,100.00
2022-10-07T19:52:27.959Z,100.00
2022-10-07T19:54:56.386Z,100.00
2022-10-07T19:57:26.305Z,100.00
2022-10-07T19:59:55.840Z,100.00
2022-10-07T20:02:25.980Z,100.00
2022-10-07T20:04:54.205Z,100.00
2022-10-07T20:07:24.101Z,100.00
2022-10-07T20:09:53.109Z,100.00
2022-10-07T20:12:21.969Z,100.00
2022-10-07T20:14:50.480Z,100.00
2022-10-07T20:17:18.426Z,100.00
2022-10-07T20:19:46.952Z,100.00
2022-10-07T20:22:16.766Z,100.00
2022-10-07T20:24:45.250Z,100.00
2022-10-07T20:27:13.946Z,100.00
2022-10-07T20:30:00.112Z,100.00
2022-10-07T20:32:31.557Z,100.00
2022-10-07T20:35:00.257Z,100.00
2022-10-07T20:37:28.788Z,100.00
2022-10-07T20:40:15.910Z,100.00
2022-10-07T20:42:46.943Z,100.00
2022-10-07T20:45:16.516Z,100.00
2022-10-07T20:47:45.378Z,100.00
2022-10-07T20:50:14.704Z,100.00
2022-10-07T20:52:45.522Z,100.00
2022-10-07T20:55:14.548Z,100.00
2022-10-07T20:57:43.056Z,100.00
2022-10-07T21:00:16.695Z,100.00
2022-10-07T21:02:45.491Z,100.00
2022-10-07T21:05:14.143Z,100.00
2022-10-07T21:07:43.137Z,100.00
2022-10-07T21:10:10.953Z,100.00
2022-10-07T21:12:40.668Z,100.00
2022-10-07T21:15:09.273Z,100.00
2022-10-07T21:17:37.551Z,100.00
2022-10-07T21:20:06.419Z,100.00
2022-10-07T21:22:36.867Z,100.00
2022-10-07T21:25:05.455Z,100.00
2022-10-07T21:27:33.446Z,100.00
2022-10-07T21:30:01.825Z,100.00
2022-10-07T21:32:29.693Z,100.00
2022-10-07T21:34:57.992Z,100.00
2022-10-07T21:37:26.735Z,100.00
2022-10-07T21:39:54.684Z,100.00
2022-10-07T21:42:22.844Z,100.00
2022-10-07T21:44:51.125Z,100.00
2022-10-07T21:47:19.134Z,100.00
2022-10-07T21:49:47.205Z,100.00
2022-10-07T21:52:15.842Z,100.00
2022-10-07T21:54:43.624Z,100.00
2022-10-07T21:57:11.620Z,100.00
2022-10-07T21:59:39.597Z,100.00
2022-10-07T22:02:08.897Z,100.00
2022-10-07T22:04:37.544Z,100.00
2022-10-07T22:07:24.022Z,100.00
2022-10-07T22:09:51.778Z,100.00
2022-10-07T22:12:20.041Z,100.00
2022-10-07T22:14:47.934Z,100.00
2022-10-07T22:17:16.160Z,100.00
2022-10-07T22:19:44.413Z,100.00
2022-10-07T22:22:13.420Z,100.00
2022-10-07T22:24:41.172Z,100.00
2022-10-07T22:27:09.293Z,100.00
2022-10-07T22:29:38.515Z,100.00
2022-10-07T22:32:06.751Z,100.00
2022-10-07T22:34:53.433Z,100.00
2022-10-07T22:37:21.420Z,100.00
2022-10-07T22:39:49.817Z,100.00
2022-10-07T22:42:18.752Z,100.00
2022-10-07T22:44:47.182Z,100.00
2022-10-07T22:47:16.725Z,100.00
2022-10-07T22:49:44.598Z,100.00
2022-10-07T22:52:12.899Z,100.00
2022-10-07T22:54:40.893Z,100.00
2022-10-07T22:57:09.059Z,100.00
2022-10-07T22:59:38.878Z,100.00
2022-10-07T23:02:07.443Z,100.00
2022-10-07T23:04:35.316Z,100.00
2022-10-07T23:07:03.254Z,100.00
2022-10-07T23:09:31.730Z,100.00
2022-10-07T23:11:59.758Z,100.00
2022-10-07T23:14:27.666Z,100.00
2022-10-07T23:16:56.129Z,100.00
2022-10-07T23:19:23.878Z,100.00
2022-10-07T23:21:51.512Z,100.00
2022-10-07T23:24:20.178Z,100.00
2022-10-07T23:26:48.053Z,100.00
2022-10-07T23:29:16.446Z,100.00
2022-10-07T23:31:45.047Z,100.00
2022-10-07T23:34:14.116Z,100.00
2022-10-07T23:36:42.263Z,100.00
2022-10-07T23:39:10.713Z,100.00
2022-10-07T23:41:38.562Z,100.00
2022-10-07T23:44:06.593Z,100.00
2022-10-07T23:46:36.749Z,100.00
2022-10-07T23:49:05.264Z,100.00
2022-10-07T23:51:33.493Z,100.00
2022-10-07T23:54:04.676Z,100.00
2022-10-07T23:56:32.447Z,100.00
2022-10-07T23:59:01.779Z,100.00
